sensor_id;sensor_type;location;lat;lon;timestamp;P1;durP1;ratioP1;P2;durP2;ratioP2
43363;SDS011;40636;52.424;-1.948;2022-08-25T00:01:29;5.13;;;3.60;;
43363;SDS011;40636;52.424;-1.948;2022-08-25T00:04:00;7.55;;;2.83;;
43363;SDS011;40636;52.424;-1.948;2022-08-25T00:06:29;3.78;;;2.67;;
43363;SDS011;40636;52.424;-1.948;2022-08-25T00:08:57;6.95;;;3.03;;
43363;SDS011;40636;52.424;-1.948;2022-08-25T00:11:28;6.07;;;3.10;;
43363;SDS011;40636;52.424;-1.948;2022-08-25T00:14:02;6.72;;;3.17;;
43363;SDS011;40636;52.424;-1.948;2022-08-25T00:16:32;4.80;;;3.30;;
43363;SDS011;40636;52.424;-1.948;2022-08-25T00:19:01;6.50;;;3.85;;
43363;SDS011;40636;52.424;-1.948;2022-08-25T00:21:31;10.15;;;3.60;;
43363;SDS011;40636;52.424;-1.948;2022-08-25T00:23:58;5.68;;;4.03;;
43363;SDS011;40636;52.424;-1.948;2022-08-25T00:26:28;6.72;;;4.13;;
43363;SDS011;40636;52.424;-1.948;2022-08-25T00:28:55;6.60;;;3.22;;
43363;SDS011;40636;52.424;-1.948;2022-08-25T00:31:27;11.52;;;3.92;;
43363;SDS011;40636;52.424;-1.948;2022-08-25T00:34:05;6.90;;;3.42;;
43363;SDS011;40636;52.424;-1.948;2022-08-25T00:36:34;7.43;;;3.65;;
43363;SDS011;40636;52.424;-1.948;2022-08-25T00:39:02;6.00;;;3.50;;
43363;SDS011;40636;52.424;-1.948;2022-08-25T00:41:31;7.90;;;3.63;;
43363;SDS011;40636;52.424;-1.948;2022-08-25T00:44:02;5.75;;;3.67;;
43363;SDS011;40636;52.424;-1.948;2022-08-25T00:46:36;5.57;;;3.50;;
43363;SDS011;40636;52.424;-1.948;2022-08-25T00:49:50;6.32;;;3.28;;
43363;SDS011;40636;52.424;-1.948;2022-08-25T00:52:06;6.00;;;3.67;;
43363;SDS011;40636;52.424;-1.948;2022-08-25T00:57:04;7.70;;;3.30;;
43363;SDS011;40636;52.424;-1.948;2022-08-25T00:59:34;5.13;;;3.25;;
43363;SDS011;40636;52.424;-1.948;2022-08-25T01:02:03;6.80;;;3.72;;
43363;SDS011;40636;52.424;-1.948;2022-08-25T01:04:38;7.05;;;4.00;;
43363;SDS011;40636;52.424;-1.948;2022-08-25T01:07:14;9.15;;;4.05;;
43363;SDS011;40636;52.424;-1.948;2022-08-25T01:09:44;7.55;;;3.25;;
43363;SDS011;40636;52.424;-1.948;2022-08-25T01:12:13;6.00;;;3.47;;
43363;SDS011;40636;52.424;-1.948;2022-08-25T01:14:40;6.40;;;3.42;;
43363;SDS011;40636;52.424;-1.948;2022-08-25T01:17:11;6.55;;;3.63;;
43363;SDS011;40636;52.424;-1.948;2022-08-25T01:19:39;10.07;;;3.25;;
43363;SDS011;40636;52.424;-1.948;2022-08-25T01:22:06;6.45;;;3.72;;
43363;SDS011;40636;52.424;-1.948;2022-08-25T01:25:10;8.20;;;3.80;;
43363;SDS011;40636;52.424;-1.948;2022-08-25T01:27:31;6.82;;;3.83;;
43363;SDS011;40636;52.424;-1.948;2022-08-25T01:29:58;6.43;;;3.95;;
43363;SDS011;40636;52.424;-1.948;2022-08-25T01:32:25;8.80;;;5.82;;
43363;SDS011;40636;52.424;-1.948;2022-08-25T01:34:54;8.27;;;4.57;;
43363;SDS011;40636;52.424;-1.948;2022-08-25T01:37:20;7.32;;;4.70;;
43363;SDS011;40636;52.424;-1.948;2022-08-25T01:39:47;13.82;;;4.80;;
43363;SDS011;40636;52.424;-1.948;2022-08-25T01:44:50;8.80;;;4.80;;
43363;SDS011;40636;52.424;-1.948;2022-08-25T01:47:17;9.23;;;5.15;;
43363;SDS011;40636;52.424;-1.948;2022-08-25T01:49:45;9.77;;;4.70;;
43363;SDS011;40636;52.424;-1.948;2022-08-25T01:52:19;8.95;;;4.70;;
43363;SDS011;40636;52.424;-1.948;2022-08-25T01:54:53;10.02;;;3.97;;
43363;SDS011;40636;52.424;-1.948;2022-08-25T01:57:20;6.57;;;4.00;;
43363;SDS011;40636;52.424;-1.948;2022-08-25T01:59:47;6.32;;;4.18;;
43363;SDS011;40636;52.424;-1.948;2022-08-25T02:02:14;9.90;;;4.38;;
43363;SDS011;40636;52.424;-1.948;2022-08-25T02:04:43;6.82;;;3.55;;
43363;SDS011;40636;52.424;-1.948;2022-08-25T02:07:10;6.05;;;2.83;;
43363;SDS011;40636;52.424;-1.948;2022-08-25T02:09:37;4.80;;;3.08;;
43363;SDS011;40636;52.424;-1.948;2022-08-25T02:12:04;3.35;;;2.05;;
43363;SDS011;40636;52.424;-1.948;2022-08-25T02:14:34;5.43;;;1.80;;
43363;SDS011;40636;52.424;-1.948;2022-08-25T02:17:02;2.95;;;2.08;;
43363;SDS011;40636;52.424;-1.948;2022-08-25T02:19:30;5.07;;;1.90;;
43363;SDS011;40636;52.424;-1.948;2022-08-25T02:21:58;2.80;;;1.70;;
43363;SDS011;40636;52.424;-1.948;2022-08-25T02:24:25;3.47;;;1.75;;
43363;SDS011;40636;52.424;-1.948;2022-08-25T02:26:52;5.32;;;2.47;;
43363;SDS011;40636;52.424;-1.948;2022-08-25T02:29:19;3.80;;;2.55;;
43363;SDS011;40636;52.424;-1.948;2022-08-25T02:31:46;3.17;;;2.40;;
43363;SDS011;40636;52.424;-1.948;2022-08-25T02:34:14;5.18;;;2.58;;
43363;SDS011;40636;52.424;-1.948;2022-08-25T02:36:41;4.15;;;2.08;;
43363;SDS011;40636;52.424;-1.948;2022-08-25T02:39:09;2.85;;;1.92;;
43363;SDS011;40636;52.424;-1.948;2022-08-25T02:41:37;3.17;;;1.83;;
43363;SDS011;40636;52.424;-1.948;2022-08-25T02:44:05;3.80;;;2.30;;
43363;SDS011;40636;52.424;-1.948;2022-08-25T02:46:33;4.05;;;3.08;;
43363;SDS011;40636;52.424;-1.948;2022-08-25T02:49:00;4.05;;;2.63;;
43363;SDS011;40636;52.424;-1.948;2022-08-25T02:51:27;3.75;;;2.28;;
43363;SDS011;40636;52.424;-1.948;2022-08-25T02:53:56;3.72;;;2.58;;
43363;SDS011;40636;52.424;-1.948;2022-08-25T02:56:24;5.53;;;2.45;;
43363;SDS011;40636;52.424;-1.948;2022-08-25T02:58:52;3.95;;;2.55;;
43363;SDS011;40636;52.424;-1.948;2022-08-25T03:01:20;3.63;;;2.88;;
43363;SDS011;40636;52.424;-1.948;2022-08-25T03:03:53;5.82;;;3.33;;
43363;SDS011;40636;52.424;-1.948;2022-08-25T03:06:21;5.40;;;3.55;;
43363;SDS011;40636;52.424;-1.948;2022-08-25T03:08:50;6.95;;;3.35;;
43363;SDS011;40636;52.424;-1.948;2022-08-25T03:11:17;5.25;;;3.88;;
43363;SDS011;40636;52.424;-1.948;2022-08-25T03:13:44;11.02;;;3.92;;
43363;SDS011;40636;52.424;-1.948;2022-08-25T03:16:12;8.10;;;4.20;;
43363;SDS011;40636;52.424;-1.948;2022-08-25T03:18:40;14.88;;;4.25;;
43363;SDS011;40636;52.424;-1.948;2022-08-25T03:21:08;6.70;;;4.70;;
43363;SDS011;40636;52.424;-1.948;2022-08-25T03:23:37;6.50;;;4.30;;
43363;SDS011;40636;52.424;-1.948;2022-08-25T03:26:04;7.65;;;4.70;;
43363;SDS011;40636;52.424;-1.948;2022-08-25T03:28:50;8.32;;;5.07;;
43363;SDS011;40636;52.424;-1.948;2022-08-25T03:31:18;6.65;;;4.57;;
43363;SDS011;40636;52.424;-1.948;2022-08-25T03:33:44;9.43;;;5.22;;
43363;SDS011;40636;52.424;-1.948;2022-08-25T03:36:12;11.73;;;5.15;;
43363;SDS011;40636;52.424;-1.948;2022-08-25T03:38:40;7.70;;;5.05;;
43363;SDS011;40636;52.424;-1.948;2022-08-25T03:41:11;9.27;;;5.78;;
43363;SDS011;40636;52.424;-1.948;2022-08-25T03:43:42;8.32;;;5.50;;
43363;SDS011;40636;52.424;-1.948;2022-08-25T03:46:15;8.63;;;5.53;;
43363;SDS011;40636;52.424;-1.948;2022-08-25T03:48:47;13.23;;;6.00;;
43363;SDS011;40636;52.424;-1.948;2022-08-25T03:51:35;9.18;;;5.97;;
43363;SDS011;40636;52.424;-1.948;2022-08-25T03:54:06;9.05;;;5.53;;
43363;SDS011;40636;52.424;-1.948;2022-08-25T03:56:34;7.28;;;5.53;;
43363;SDS011;40636;52.424;-1.948;2022-08-25T03:59:02;9.38;;;5.00;;
43363;SDS011;40636;52.424;-1.948;2022-08-25T04:01:36;11.95;;;6.30;;
43363;SDS011;40636;52.424;-1.948;2022-08-25T04:04:05;10.70;;;6.10;;
43363;SDS011;40636;52.424;-1.948;2022-08-25T04:06:34;11.57;;;5.38;;
43363;SDS011;40636;52.424;-1.948;2022-08-25T04:09:01;9.60;;;5.65;;
43363;SDS011;40636;52.424;-1.948;2022-08-25T04:11:28;9.68;;;5.38;;
43363;SDS011;40636;52.424;-1.948;2022-08-25T04:13:56;7.90;;;5.38;;
43363;SDS011;40636;52.424;-1.948;2022-08-25T04:16:26;9.13;;;5.35;;
43363;SDS011;40636;52.424;-1.948;2022-08-25T04:18:58;8.57;;;5.90;;
43363;SDS011;40636;52.424;-1.948;2022-08-25T04:21:28;6.35;;;4.15;;
43363;SDS011;40636;52.424;-1.948;2022-08-25T04:23:55;8.50;;;4.30;;
43363;SDS011;40636;52.424;-1.948;2022-08-25T04:26:33;4.70;;;3.80;;
43363;SDS011;40636;52.424;-1.948;2022-08-25T04:29:03;8.40;;;3.63;;
43363;SDS011;40636;52.424;-1.948;2022-08-25T04:31:31;4.47;;;3.60;;
43363;SDS011;40636;52.424;-1.948;2022-08-25T04:34:02;6.95;;;3.55;;
43363;SDS011;40636;52.424;-1.948;2022-08-25T04:36:51;4.63;;;3.35;;
43363;SDS011;40636;52.424;-1.948;2022-08-25T04:39:18;6.22;;;3.47;;
43363;SDS011;40636;52.424;-1.948;2022-08-25T04:41:46;6.90;;;3.22;;
43363;SDS011;40636;52.424;-1.948;2022-08-25T04:44:14;4.95;;;3.42;;
43363;SDS011;40636;52.424;-1.948;2022-08-25T04:46:42;6.88;;;3.17;;
43363;SDS011;40636;52.424;-1.948;2022-08-25T04:49:09;7.82;;;3.28;;
43363;SDS011;40636;52.424;-1.948;2022-08-25T04:51:37;5.28;;;3.33;;
43363;SDS011;40636;52.424;-1.948;2022-08-25T04:54:07;7.65;;;3.50;;
43363;SDS011;40636;52.424;-1.948;2022-08-25T04:56:38;5.07;;;3.67;;
43363;SDS011;40636;52.424;-1.948;2022-08-25T04:59:07;6.70;;;3.83;;
43363;SDS011;40636;52.424;-1.948;2022-08-25T05:01:39;4.70;;;3.78;;
43363;SDS011;40636;52.424;-1.948;2022-08-25T05:04:08;6.93;;;3.63;;
43363;SDS011;40636;52.424;-1.948;2022-08-25T05:06:54;3.60;;;3.08;;
43363;SDS011;40636;52.424;-1.948;2022-08-25T05:09:21;6.85;;;3.88;;
43363;SDS011;40636;52.424;-1.948;2022-08-25T05:11:50;6.05;;;3.40;;
43363;SDS011;40636;52.424;-1.948;2022-08-25T05:14:17;5.70;;;3.17;;
43363;SDS011;40636;52.424;-1.948;2022-08-25T05:16:52;4.35;;;2.80;;
43363;SDS011;40636;52.424;-1.948;2022-08-25T05:19:20;4.55;;;2.90;;
43363;SDS011;40636;52.424;-1.948;2022-08-25T05:21:49;4.28;;;2.63;;
43363;SDS011;40636;52.424;-1.948;2022-08-25T05:24:16;6.10;;;3.15;;
43363;SDS011;40636;52.424;-1.948;2022-08-25T05:26:44;5.00;;;2.60;;
43363;SDS011;40636;52.424;-1.948;2022-08-25T05:29:11;5.85;;;2.78;;
43363;SDS011;40636;52.424;-1.948;2022-08-25T05:31:38;3.88;;;2.55;;
43363;SDS011;40636;52.424;-1.948;2022-08-25T05:34:11;4.13;;;2.33;;
43363;SDS011;40636;52.424;-1.948;2022-08-25T05:36:38;4.13;;;2.65;;
43363;SDS011;40636;52.424;-1.948;2022-08-25T05:39:09;4.53;;;2.92;;
43363;SDS011;40636;52.424;-1.948;2022-08-25T05:41:36;3.17;;;2.30;;
43363;SDS011;40636;52.424;-1.948;2022-08-25T05:44:03;4.25;;;2.50;;
43363;SDS011;40636;52.424;-1.948;2022-08-25T05:46:30;3.33;;;2.53;;
43363;SDS011;40636;52.424;-1.948;2022-08-25T05:48:58;6.53;;;2.78;;
43363;SDS011;40636;52.424;-1.948;2022-08-25T05:51:26;4.60;;;2.40;;
43363;SDS011;40636;52.424;-1.948;2022-08-25T05:53:53;4.13;;;2.58;;
43363;SDS011;40636;52.424;-1.948;2022-08-25T05:56:20;5.30;;;2.40;;
43363;SDS011;40636;52.424;-1.948;2022-08-25T05:58:47;3.13;;;2.72;;
43363;SDS011;40636;52.424;-1.948;2022-08-25T06:01:20;4.28;;;2.30;;
43363;SDS011;40636;52.424;-1.948;2022-08-25T06:04:11;2.65;;;1.90;;
43363;SDS011;40636;52.424;-1.948;2022-08-25T06:06:41;3.55;;;2.38;;
43363;SDS011;40636;52.424;-1.948;2022-08-25T06:09:08;5.50;;;2.17;;
43363;SDS011;40636;52.424;-1.948;2022-08-25T06:11:36;3.05;;;2.20;;
43363;SDS011;40636;52.424;-1.948;2022-08-25T06:14:06;2.67;;;2.08;;
43363;SDS011;40636;52.424;-1.948;2022-08-25T06:16:34;4.18;;;2.17;;
43363;SDS011;40636;52.424;-1.948;2022-08-25T06:19:01;2.72;;;2.35;;
43363;SDS011;40636;52.424;-1.948;2022-08-25T06:21:28;2.55;;;1.92;;
43363;SDS011;40636;52.424;-1.948;2022-08-25T06:23:55;2.70;;;1.85;;
43363;SDS011;40636;52.424;-1.948;2022-08-25T06:26:22;3.42;;;1.73;;
43363;SDS011;40636;52.424;-1.948;2022-08-25T06:28:50;3.47;;;2.00;;
43363;SDS011;40636;52.424;-1.948;2022-08-25T06:31:19;3.85;;;1.95;;
43363;SDS011;40636;52.424;-1.948;2022-08-25T06:33:48;2.83;;;1.70;;
43363;SDS011;40636;52.424;-1.948;2022-08-25T06:36:15;3.33;;;1.90;;
43363;SDS011;40636;52.424;-1.948;2022-08-25T06:38:43;4.30;;;1.90;;
43363;SDS011;40636;52.424;-1.948;2022-08-25T06:41:11;3.33;;;1.90;;
43363;SDS011;40636;52.424;-1.948;2022-08-25T06:43:40;4.40;;;2.22;;
43363;SDS011;40636;52.424;-1.948;2022-08-25T06:46:17;3.15;;;1.60;;
43363;SDS011;40636;52.424;-1.948;2022-08-25T06:48:45;3.72;;;2.28;;
43363;SDS011;40636;52.424;-1.948;2022-08-25T06:51:13;2.63;;;2.35;;
43363;SDS011;40636;52.424;-1.948;2022-08-25T06:53:43;5.55;;;3.03;;
43363;SDS011;40636;52.424;-1.948;2022-08-25T06:56:13;3.60;;;2.00;;
43363;SDS011;40636;52.424;-1.948;2022-08-25T06:58:41;2.65;;;2.00;;
43363;SDS011;40636;52.424;-1.948;2022-08-25T07:01:12;2.28;;;1.67;;
43363;SDS011;40636;52.424;-1.948;2022-08-25T07:03:45;2.92;;;2.28;;
43363;SDS011;40636;52.424;-1.948;2022-08-25T07:06:13;3.50;;;2.08;;
43363;SDS011;40636;52.424;-1.948;2022-08-25T07:08:50;2.88;;;2.00;;
43363;SDS011;40636;52.424;-1.948;2022-08-25T07:11:17;2.88;;;2.05;;
43363;SDS011;40636;52.424;-1.948;2022-08-25T07:13:47;4.90;;;2.85;;
43363;SDS011;40636;52.424;-1.948;2022-08-25T07:16:16;5.20;;;2.55;;
43363;SDS011;40636;52.424;-1.948;2022-08-25T07:18:47;3.30;;;2.75;;
43363;SDS011;40636;52.424;-1.948;2022-08-25T07:21:14;4.57;;;2.10;;
43363;SDS011;40636;52.424;-1.948;2022-08-25T07:23:45;3.15;;;2.38;;
43363;SDS011;40636;52.424;-1.948;2022-08-25T07:26:14;4.40;;;2.60;;
43363;SDS011;40636;52.424;-1.948;2022-08-25T07:32:33;6.95;;;2.42;;
43363;SDS011;40636;52.424;-1.948;2022-08-25T07:35:01;2.70;;;2.13;;
43363;SDS011;40636;52.424;-1.948;2022-08-25T07:37:50;4.45;;;2.88;;
43363;SDS011;40636;52.424;-1.948;2022-08-25T07:40:23;4.22;;;2.65;;
43363;SDS011;40636;52.424;-1.948;2022-08-25T07:42:54;7.40;;;3.30;;
43363;SDS011;40636;52.424;-1.948;2022-08-25T07:45:24;3.65;;;2.40;;
43363;SDS011;40636;52.424;-1.948;2022-08-25T07:48:03;5.53;;;2.53;;
43363;SDS011;40636;52.424;-1.948;2022-08-25T07:50:35;4.35;;;2.72;;
43363;SDS011;40636;52.424;-1.948;2022-08-25T07:53:04;6.63;;;2.88;;
43363;SDS011;40636;52.424;-1.948;2022-08-25T07:55:32;8.35;;;3.80;;
43363;SDS011;40636;52.424;-1.948;2022-08-25T07:58:02;6.97;;;4.35;;
43363;SDS011;40636;52.424;-1.948;2022-08-25T08:00:32;6.68;;;3.80;;
43363;SDS011;40636;52.424;-1.948;2022-08-25T08:03:03;7.35;;;4.18;;
43363;SDS011;40636;52.424;-1.948;2022-08-25T08:05:33;6.65;;;4.45;;
43363;SDS011;40636;52.424;-1.948;2022-08-25T08:08:03;10.88;;;5.35;;
43363;SDS011;40636;52.424;-1.948;2022-08-25T08:10:30;6.88;;;4.50;;
43363;SDS011;40636;52.424;-1.948;2022-08-25T08:13:17;9.45;;;5.60;;
43363;SDS011;40636;52.424;-1.948;2022-08-25T08:15:46;9.85;;;5.25;;
43363;SDS011;40636;52.424;-1.948;2022-08-25T08:18:14;8.90;;;6.28;;
43363;SDS011;40636;52.424;-1.948;2022-08-25T08:20:42;12.38;;;5.93;;
43363;SDS011;40636;52.424;-1.948;2022-08-25T08:23:10;8.18;;;5.60;;
43363;SDS011;40636;52.424;-1.948;2022-08-25T08:25:37;10.25;;;7.00;;
43363;SDS011;40636;52.424;-1.948;2022-08-25T08:28:04;10.50;;;6.88;;
43363;SDS011;40636;52.424;-1.948;2022-08-25T08:30:33;9.18;;;6.53;;
43363;SDS011;40636;52.424;-1.948;2022-08-25T08:33:02;9.57;;;6.05;;
43363;SDS011;40636;52.424;-1.948;2022-08-25T08:35:37;10.48;;;6.75;;
43363;SDS011;40636;52.424;-1.948;2022-08-25T08:38:06;10.40;;;6.57;;
43363;SDS011;40636;52.424;-1.948;2022-08-25T08:40:44;11.38;;;6.60;;
43363;SDS011;40636;52.424;-1.948;2022-08-25T08:43:41;8.57;;;6.55;;
43363;SDS011;40636;52.424;-1.948;2022-08-25T08:46:09;9.23;;;6.20;;
43363;SDS011;40636;52.424;-1.948;2022-08-25T08:48:43;12.60;;;7.60;;
43363;SDS011;40636;52.424;-1.948;2022-08-25T08:51:18;8.35;;;5.95;;
43363;SDS011;40636;52.424;-1.948;2022-08-25T08:56:28;13.32;;;7.55;;
43363;SDS011;40636;52.424;-1.948;2022-08-25T08:59:17;10.80;;;7.05;;
43363;SDS011;40636;52.424;-1.948;2022-08-25T09:01:59;12.52;;;7.30;;
43363;SDS011;40636;52.424;-1.948;2022-08-25T09:04:32;11.27;;;7.07;;
43363;SDS011;40636;52.424;-1.948;2022-08-25T09:07:03;8.05;;;6.43;;
43363;SDS011;40636;52.424;-1.948;2022-08-25T09:09:36;14.30;;;7.63;;
43363;SDS011;40636;52.424;-1.948;2022-08-25T09:17:46;14.50;;;9.07;;
43363;SDS011;40636;52.424;-1.948;2022-08-25T09:31:42;13.75;;;6.78;;
43363;SDS011;40636;52.424;-1.948;2022-08-25T09:34:12;10.48;;;6.75;;
43363;SDS011;40636;52.424;-1.948;2022-08-25T09:36:45;8.50;;;6.00;;
43363;SDS011;40636;52.424;-1.948;2022-08-25T09:39:14;9.20;;;5.35;;
43363;SDS011;40636;52.424;-1.948;2022-08-25T09:41:43;9.75;;;5.32;;
43363;SDS011;40636;52.424;-1.948;2022-08-25T09:44:23;11.52;;;6.05;;
43363;SDS011;40636;52.424;-1.948;2022-08-25T09:46:57;13.10;;;6.82;;
43363;SDS011;40636;52.424;-1.948;2022-08-25T09:49:34;12.35;;;5.70;;
43363;SDS011;40636;52.424;-1.948;2022-08-25T10:08:40;8.18;;;5.65;;
43363;SDS011;40636;52.424;-1.948;2022-08-25T10:14:06;8.40;;;4.93;;
43363;SDS011;40636;52.424;-1.948;2022-08-25T10:16:42;5.68;;;4.10;;
43363;SDS011;40636;52.424;-1.948;2022-08-25T10:19:13;6.93;;;3.92;;
43363;SDS011;40636;52.424;-1.948;2022-08-25T10:24:47;6.25;;;4.05;;
43363;SDS011;40636;52.424;-1.948;2022-08-25T10:32:54;6.25;;;4.10;;
43363;SDS011;40636;52.424;-1.948;2022-08-25T10:36:19;5.72;;;3.92;;
43363;SDS011;40636;52.424;-1.948;2022-08-25T10:38:59;7.65;;;4.15;;
43363;SDS011;40636;52.424;-1.948;2022-08-25T10:41:30;4.80;;;3.05;;
43363;SDS011;40636;52.424;-1.948;2022-08-25T10:44:13;4.32;;;2.83;;
43363;SDS011;40636;52.424;-1.948;2022-08-25T11:09:36;6.45;;;2.55;;
43363;SDS011;40636;52.424;-1.948;2022-08-25T11:12:12;3.78;;;2.33;;
43363;SDS011;40636;52.424;-1.948;2022-08-25T11:17:23;5.18;;;2.30;;
43363;SDS011;40636;52.424;-1.948;2022-08-25T11:19:54;3.67;;;2.35;;
43363;SDS011;40636;52.424;-1.948;2022-08-25T11:22:51;2.63;;;2.22;;
43363;SDS011;40636;52.424;-1.948;2022-08-25T11:25:46;2.88;;;2.00;;
43363;SDS011;40636;52.424;-1.948;2022-08-25T11:31:01;3.35;;;1.95;;
43363;SDS011;40636;52.424;-1.948;2022-08-25T11:33:30;4.22;;;2.60;;
43363;SDS011;40636;52.424;-1.948;2022-08-25T11:36:02;3.30;;;2.28;;
43363;SDS011;40636;52.424;-1.948;2022-08-25T11:41:37;4.00;;;2.45;;
43363;SDS011;40636;52.424;-1.948;2022-08-25T11:53:15;4.10;;;3.05;;
43363;SDS011;40636;52.424;-1.948;2022-08-25T11:55:55;2.90;;;2.50;;
43363;SDS011;40636;52.424;-1.948;2022-08-25T12:18:36;7.97;;;4.20;;
43363;SDS011;40636;52.424;-1.948;2022-08-25T12:24:05;8.45;;;3.95;;
43363;SDS011;40636;52.424;-1.948;2022-08-25T12:26:41;8.50;;;4.32;;
43363;SDS011;40636;52.424;-1.948;2022-08-25T12:40:32;7.55;;;5.28;;
43363;SDS011;40636;52.424;-1.948;2022-08-25T12:45:50;6.38;;;5.57;;
43363;SDS011;40636;52.424;-1.948;2022-08-25T12:50:56;7.63;;;5.28;;
43363;SDS011;40636;52.424;-1.948;2022-08-25T12:53:29;11.98;;;6.15;;
43363;SDS011;40636;52.424;-1.948;2022-08-25T12:56:07;6.90;;;5.10;;
43363;SDS011;40636;52.424;-1.948;2022-08-25T12:58:49;10.68;;;5.40;;
43363;SDS011;40636;52.424;-1.948;2022-08-25T13:12:21;9.80;;;5.00;;
43363;SDS011;40636;52.424;-1.948;2022-08-25T13:14:56;8.65;;;4.93;;
43363;SDS011;40636;52.424;-1.948;2022-08-25T13:17:32;6.07;;;4.72;;
43363;SDS011;40636;52.424;-1.948;2022-08-25T13:23:01;10.90;;;5.55;;
43363;SDS011;40636;52.424;-1.948;2022-08-25T13:25:29;8.30;;;5.30;;
43363;SDS011;40636;52.424;-1.948;2022-08-25T13:27:59;14.35;;;6.43;;
43363;SDS011;40636;52.424;-1.948;2022-08-25T13:30:31;7.35;;;4.47;;
43363;SDS011;40636;52.424;-1.948;2022-08-25T13:33:21;7.40;;;5.20;;
43363;SDS011;40636;52.424;-1.948;2022-08-25T13:35:51;8.45;;;5.50;;
43363;SDS011;40636;52.424;-1.948;2022-08-25T13:38:41;7.75;;;4.90;;
43363;SDS011;40636;52.424;-1.948;2022-08-25T13:41:30;9.20;;;5.45;;
43363;SDS011;40636;52.424;-1.948;2022-08-25T13:46:28;7.88;;;5.82;;
43363;SDS011;40636;52.424;-1.948;2022-08-25T13:49:06;8.75;;;5.80;;
43363;SDS011;40636;52.424;-1.948;2022-08-25T13:51:36;7.60;;;5.55;;
43363;SDS011;40636;52.424;-1.948;2022-08-25T13:54:06;9.38;;;6.38;;
43363;SDS011;40636;52.424;-1.948;2022-08-25T13:56:46;9.65;;;5.53;;
43363;SDS011;40636;52.424;-1.948;2022-08-25T13:59:24;8.20;;;6.22;;
43363;SDS011;40636;52.424;-1.948;2022-08-25T14:01:59;10.45;;;6.43;;
43363;SDS011;40636;52.424;-1.948;2022-08-25T14:04:29;12.35;;;6.07;;
43363;SDS011;40636;52.424;-1.948;2022-08-25T14:09:55;11.23;;;6.13;;
43363;SDS011;40636;52.424;-1.948;2022-08-25T14:12:41;8.38;;;6.65;;
43363;SDS011;40636;52.424;-1.948;2022-08-25T14:17:47;10.48;;;6.75;;
43363;SDS011;40636;52.424;-1.948;2022-08-25T14:20:26;10.27;;;6.22;;
43363;SDS011;40636;52.424;-1.948;2022-08-25T14:23:05;10.57;;;6.97;;
43363;SDS011;40636;52.424;-1.948;2022-08-25T14:25:35;9.35;;;6.82;;
43363;SDS011;40636;52.424;-1.948;2022-08-25T14:28:09;10.50;;;6.53;;
43363;SDS011;40636;52.424;-1.948;2022-08-25T14:30:42;11.20;;;6.68;;
43363;SDS011;40636;52.424;-1.948;2022-08-25T14:33:13;8.90;;;5.78;;
43363;SDS011;40636;52.424;-1.948;2022-08-25T14:35:46;9.70;;;6.35;;
43363;SDS011;40636;52.424;-1.948;2022-08-25T14:38:16;9.60;;;6.47;;
43363;SDS011;40636;52.424;-1.948;2022-08-25T14:40:45;11.20;;;6.93;;
43363;SDS011;40636;52.424;-1.948;2022-08-25T14:43:13;11.15;;;7.18;;
43363;SDS011;40636;52.424;-1.948;2022-08-25T14:45:42;11.90;;;7.32;;
43363;SDS011;40636;52.424;-1.948;2022-08-25T14:48:16;12.77;;;6.53;;
43363;SDS011;40636;52.424;-1.948;2022-08-25T14:50:52;12.27;;;6.53;;
43363;SDS011;40636;52.424;-1.948;2022-08-25T14:53:20;10.95;;;7.03;;
43363;SDS011;40636;52.424;-1.948;2022-08-25T14:55:51;9.88;;;6.40;;
43363;SDS011;40636;52.424;-1.948;2022-08-25T14:58:25;9.98;;;6.80;;
43363;SDS011;40636;52.424;-1.948;2022-08-25T15:00:59;11.20;;;7.28;;
43363;SDS011;40636;52.424;-1.948;2022-08-25T15:03:33;13.02;;;7.15;;
43363;SDS011;40636;52.424;-1.948;2022-08-25T15:06:05;11.50;;;6.75;;
43363;SDS011;40636;52.424;-1.948;2022-08-25T15:08:36;11.02;;;6.65;;
43363;SDS011;40636;52.424;-1.948;2022-08-25T15:11:22;13.55;;;7.13;;
43363;SDS011;40636;52.424;-1.948;2022-08-25T15:13:51;10.90;;;6.65;;
43363;SDS011;40636;52.424;-1.948;2022-08-25T15:16:29;14.73;;;8.27;;
43363;SDS011;40636;52.424;-1.948;2022-08-25T15:19:01;13.38;;;6.97;;
43363;SDS011;40636;52.424;-1.948;2022-08-25T15:21:33;11.32;;;6.60;;
43363;SDS011;40636;52.424;-1.948;2022-08-25T15:24:02;15.95;;;7.15;;
43363;SDS011;40636;52.424;-1.948;2022-08-25T15:26:30;13.20;;;7.00;;
43363;SDS011;40636;52.424;-1.948;2022-08-25T15:29:04;8.85;;;5.68;;
43363;SDS011;40636;52.424;-1.948;2022-08-25T15:31:34;9.35;;;6.10;;
43363;SDS011;40636;52.424;-1.948;2022-08-25T15:34:02;13.15;;;6.30;;
43363;SDS011;40636;52.424;-1.948;2022-08-25T15:36:32;9.65;;;6.22;;
43363;SDS011;40636;52.424;-1.948;2022-08-25T15:39:00;13.43;;;5.80;;
43363;SDS011;40636;52.424;-1.948;2022-08-25T15:41:29;11.05;;;6.07;;
43363;SDS011;40636;52.424;-1.948;2022-08-25T15:43:58;9.25;;;5.93;;
43363;SDS011;40636;52.424;-1.948;2022-08-25T15:46:30;7.95;;;6.32;;
43363;SDS011;40636;52.424;-1.948;2022-08-25T15:48:58;9.43;;;6.25;;
43363;SDS011;40636;52.424;-1.948;2022-08-25T15:51:26;10.13;;;6.07;;
43363;SDS011;40636;52.424;-1.948;2022-08-25T15:53:55;7.15;;;6.07;;
43363;SDS011;40636;52.424;-1.948;2022-08-25T15:56:23;8.40;;;4.93;;
43363;SDS011;40636;52.424;-1.948;2022-08-25T15:58:53;11.13;;;6.32;;
43363;SDS011;40636;52.424;-1.948;2022-08-25T16:01:24;6.82;;;5.75;;
43363;SDS011;40636;52.424;-1.948;2022-08-25T16:03:55;6.95;;;5.45;;
43363;SDS011;40636;52.424;-1.948;2022-08-25T16:06:23;11.20;;;5.75;;
43363;SDS011;40636;52.424;-1.948;2022-08-25T16:08:51;9.75;;;5.22;;
43363;SDS011;40636;52.424;-1.948;2022-08-25T16:11:20;8.73;;;5.18;;
43363;SDS011;40636;52.424;-1.948;2022-08-25T16:13:51;6.70;;;5.40;;
43363;SDS011;40636;52.424;-1.948;2022-08-25T16:16:27;8.85;;;5.65;;
43363;SDS011;40636;52.424;-1.948;2022-08-25T16:18:59;9.52;;;5.25;;
43363;SDS011;40636;52.424;-1.948;2022-08-25T16:21:29;7.75;;;5.45;;
43363;SDS011;40636;52.424;-1.948;2022-08-25T16:23:59;10.05;;;5.32;;
43363;SDS011;40636;52.424;-1.948;2022-08-25T16:26:34;7.28;;;4.72;;
43363;SDS011;40636;52.424;-1.948;2022-08-25T16:29:05;6.00;;;4.78;;
43363;SDS011;40636;52.424;-1.948;2022-08-25T16:31:35;8.80;;;4.55;;
43363;SDS011;40636;52.424;-1.948;2022-08-25T16:34:03;10.63;;;4.55;;
43363;SDS011;40636;52.424;-1.948;2022-08-25T16:36:30;7.50;;;5.10;;
43363;SDS011;40636;52.424;-1.948;2022-08-25T16:38:58;10.00;;;4.88;;
43363;SDS011;40636;52.424;-1.948;2022-08-25T16:41:27;10.95;;;4.82;;
43363;SDS011;40636;52.424;-1.948;2022-08-25T16:44:02;8.32;;;4.57;;
43363;SDS011;40636;52.424;-1.948;2022-08-25T16:46:39;5.10;;;4.57;;
43363;SDS011;40636;52.424;-1.948;2022-08-25T16:49:30;5.82;;;4.55;;
43363;SDS011;40636;52.424;-1.948;2022-08-25T16:52:11;8.15;;;4.30;;
43363;SDS011;40636;52.424;-1.948;2022-08-25T16:55:02;8.18;;;4.70;;
43363;SDS011;40636;52.424;-1.948;2022-08-25T17:00:09;6.55;;;4.35;;
43363;SDS011;40636;52.424;-1.948;2022-08-25T17:02:39;5.40;;;3.97;;
43363;SDS011;40636;52.424;-1.948;2022-08-25T17:05:08;8.57;;;3.95;;
43363;SDS011;40636;52.424;-1.948;2022-08-25T17:07:35;7.97;;;4.28;;
43363;SDS011;40636;52.424;-1.948;2022-08-25T17:10:06;7.38;;;4.53;;
43363;SDS011;40636;52.424;-1.948;2022-08-25T17:12:38;6.40;;;4.25;;
43363;SDS011;40636;52.424;-1.948;2022-08-25T17:23:29;7.53;;;4.50;;
43363;SDS011;40636;52.424;-1.948;2022-08-25T17:25:57;7.07;;;4.05;;
43363;SDS011;40636;52.424;-1.948;2022-08-25T17:28:25;4.75;;;3.30;;
43363;SDS011;40636;52.424;-1.948;2022-08-25T17:30:55;4.68;;;3.20;;
43363;SDS011;40636;52.424;-1.948;2022-08-25T17:33:22;8.57;;;3.38;;
43363;SDS011;40636;52.424;-1.948;2022-08-25T17:35:53;5.03;;;3.60;;
43363;SDS011;40636;52.424;-1.948;2022-08-25T17:38:23;6.47;;;3.50;;
43363;SDS011;40636;52.424;-1.948;2022-08-25T17:40:56;6.30;;;3.60;;
43363;SDS011;40636;52.424;-1.948;2022-08-25T17:43:26;5.53;;;2.90;;
43363;SDS011;40636;52.424;-1.948;2022-08-25T17:45:54;4.22;;;2.78;;